PARS

Details ICAO PARS (RSH)
Name RUSSIAN MISSION
Region USA (Alaska)
Timezone America/Anchorage (UTC-8.0)
Plans Departing 3
Arriving 3
Stats Elevation 51 ft / 16 m (AMSL)
Location 61.774890° -161.319399°
Runways 1
Magnetic Variation 11.648° E
Sunrise 2018-05-26 13:27:38 UTC / 2018-05-26 05:27:38 Local
Sunset 2018-05-27 07:59:59 UTC / 2018-05-26 23:59:59 Local
Advertisement - Login to hide

Runways

ID Width Length Bearing (true) Bearing (mag) Surface Threshold Offset Overrun Length
17 98 ft / 30 m 3,593 ft / 1,095 m 187.43° 175.78° Gravel 0 ft / 0 m 0 ft / 0 m
35 98 ft / 30 m 3,593 ft / 1,095 m 7.43° 355.78° Gravel 0 ft / 0 m 0 ft / 0 m

Map

Weather


0- 5 10 15 20 25 30 35+ Temperature / ° C

Clouds and Precipitation
Forecast for 2018-05-26 12:00 UTC. Updated an hour ago

Ground ~20,000 ft ~40,000 ft Winds

METAR

PARS 261156Z AUTO VRB03KT 10SM OVC043 04/01 A2972 RMK AO2 SLP067 60001 70004 T00440011 10094 20044 51007 $

TAF

Not found

Frequencies

Recorded 118.37 MHz ASOS
Unicom 122.90 MHz CTAF
Warning: Do not use this data for real-world aviation or navigation. No guarantee of current accuracy is given.